Latest Weather Observations for Kanagulk

IDV60801

Issued at 10:32 am EDT Monday 27 February 2017 (issued every 30 minutes, with the page automatically refreshed every 10 minutes)

About weather observations | Map of weather stations | Latest weather observations for VIC | Other Formats
Station Details ID: 079097 Name: KANAGULK Lat: -37.12 Lon: 141.80 Height: 188.8 m
Data from the previous 72 hours. | See also: Recent months at Kanagulk
Date/Time
EDT
Temp
°C
App
Temp
°C
Dew
Point
°C
Rel
Hum
%
Delta-T
°C
Wind Press
QNH
hPa
Press
MSL
hPa
Rain since
9am
mm
Dir  Spd
km/h
Gust
km/h
Spd
kts
Gust
kts
27/10:30am 27.2 23.5 10.0 34 9.6 NNE 20 30 11 16 1021.6 1021.0 0.0
27/10:00am 26.1 21.6 9.9 36 9.0 NNE 24 28 13 15 1021.5 1020.9 0.0
27/09:30am 25.1 21.0 10.2 39 8.3 NE 22 30 12 16 1021.4 1020.8 0.0
27/09:00am 22.6 19.8 11.4 49 6.3 NE 17 26 9 14 1021.4 1020.8 0.0
27/08:30am 18.9 18.1 12.9 68 3.4 NE 9 15 5 8 1021.3 1020.7 0.0
27/08:00am 14.9 14.5 13.1 89 1.0 E 7 7 4 4 1021.1 1020.4 0.0
27/07:30am 13.0 13.8 12.5 97 0.3 CALM 0 0 0 0 1020.8 1020.1 0.0
27/07:00am 13.3 14.1 12.7 96 0.3 CALM 0 0 0 0 1020.6 1019.9 0.0
27/06:30am 13.3 14.1 12.7 96 0.3 CALM 0 0 0 0 1020.3 1019.6 0.0
27/06:00am 13.7 14.7 13.1 96 0.3 CALM 0 0 0 0 1020.0 1019.3 0.0
27/05:30am 13.4 14.1 12.3 93 0.6 CALM 0 0 0 0 1019.8 1019.1 0.0
27/05:00am 14.3 15.2 12.9 91 0.8 CALM 0 0 0 0 1019.6 1018.9 0.0
27/04:30am 14.8 15.3 12.7 87 1.2 SE 2 6 1 3 1019.6 1018.9 0.0
27/04:00am 14.9 14.4 12.6 86 1.3 ESE 7 9 4 5 1019.6 1018.9 0.0
27/03:30am 14.7 14.8 12.6 87 1.2 SSE 4 7 2 4 1019.7 1019.0 0.0
27/03:00am 15.2 14.9 12.7 85 1.4 SSE 6 9 3 5 1019.6 1018.9 0.0
27/02:30am 15.1 14.5 12.2 83 1.6 SSE 7 9 4 5 1019.6 1018.9 0.0
27/02:00am 15.6 15.1 12.7 83 1.6 SSE 7 9 4 5 1019.6 1018.9 0.0
27/01:30am 16.4 15.9 12.8 79 2.0 SSE 7 9 4 5 1019.5 1018.8 0.0
27/01:00am 16.1 15.1 12.3 78 2.1 SSE 9 13 5 7 1019.4 1018.7 0.0
27/12:30am 17.3 16.4 12.6 74 2.6 SSE 9 13 5 7 1019.4 1018.7 0.0
27/12:00am 18.3 16.8 13.0 71 3.0 SSE 13 15 7 8 1019.4 1018.7 0.0
 
Date/Time
EDT
Temp
°C
App
Temp
°C
Dew
Point
°C
Rel
Hum
%
Delta-T
°C
Wind Press
QNH
hPa
Press
MSL
hPa
Rain since
9am
mm
Dir  Spd
km/h
Gust
km/h
Spd
kts
Gust
kts
26/11:30pm 19.3 17.4 13.0 67 3.6 SSE 15 20 8 11 1019.4 1018.7 0.0
26/11:00pm 19.9 17.6 13.1 65 3.9 SSE 17 20 9 11 1019.6 1018.9 0.0
26/10:30pm 21.0 19.2 13.4 62 4.4 SSE 15 20 8 11 1019.5 1018.8 0.0
26/10:00pm 21.8 19.2 13.2 58 5.0 SSE 19 22 10 12 1019.4 1018.7 0.0
26/09:30pm 20.9 20.4 7.9 43 6.8 CALM 0 0 0 0 1018.8 1018.1 0.0
26/09:00pm 22.4 21.7 7.0 37 8.0 CALM 0 0 0 0 1018.4 1017.8 0.0
26/08:30pm 24.9 24.1 6.6 31 9.6 CALM 0 4 0 2 1018.1 1017.5 0.0
26/08:00pm 27.0 24.8 6.4 27 10.9 NNE 7 7 4 4 1017.9 1017.3 0.0
26/07:30pm 29.1 26.2 6.5 24 12.1 NNE 11 17 6 9 1017.8 1017.2 0.0
26/07:00pm 29.6 27.0 6.3 23 12.4 NE 9 17 5 9 1017.6 1017.0 0.0
26/06:30pm 30.3 27.3 6.2 22 12.9 NNE 11 20 6 11 1017.4 1016.8 0.0
26/06:00pm 30.3 26.4 6.9 23 12.7 NNE 17 24 9 13 1017.3 1016.7 0.0
26/05:30pm 30.2 28.1 6.8 23 12.7 ENE 7 15 4 8 1017.2 1016.6 0.0
26/05:00pm 30.0 27.0 7.8 25 12.2 NNE 13 20 7 11 1017.4 1016.8 0.0
26/04:30pm 29.6 26.6 7.5 25 12.1 N 13 20 7 11 1017.5 1016.9 0.0
26/04:00pm 29.4 26.6 8.5 27 11.6 NNE 13 24 7 13 1017.8 1017.2 0.0
26/03:30pm 28.9 26.4 9.6 30 10.9 ENE 13 20 7 11 1018.2 1017.6 0.0
26/03:00pm 28.3 25.4 9.6 31 10.5 NE 15 30 8 16 1018.6 1018.0 0.0
26/02:30pm 28.5 25.0 8.7 29 11.0 NNE 17 26 9 14 1019.0 1018.3 0.0
26/02:00pm 26.5 23.2 9.4 34 9.5 NNE 17 24 9 13 1019.2 1018.5 0.0
26/01:30pm 26.3 23.9 10.0 36 9.1 NNE 13 22 7 12 1019.5 1018.8 0.0
26/01:00pm 26.0 23.5 11.0 39 8.5 NE 15 24 8 13 1019.8 1019.1 0.0
26/12:30pm 24.8 23.3 10.7 41 7.9 NE 9 17 5 9 1020.2 1019.5 0.0
26/12:00pm 23.8 21.6 10.8 44 7.3 NE 13 24 7 13 1020.5 1019.8 0.0
26/11:30am 22.5 20.9 10.3 46 6.7 NE 9 17 5 9 1020.6 1019.9 0.0
26/11:00am 22.2 20.1 11.0 49 6.2 NE 13 20 7 11 1020.6 1019.9 0.0
26/10:30am 21.0 19.7 11.1 53 5.5 E 9 15 5 8 1020.6 1019.9 0.0
26/10:00am 18.9 17.2 11.2 61 4.2 SE 11 19 6 10 1020.6 1019.9 0.0
26/09:30am 16.6 14.2 11.5 72 2.8 SE 15 20 8 11 1020.6 1019.9 0.0
26/09:00am 15.1 13.4 12.4 84 1.5 SE 13 19 7 10 1020.7 1020.0 0.0
26/08:30am 13.6 11.9 12.3 92 0.7 SSE 13 17 7 9 1020.5 1019.8 0.0
26/08:00am 12.0 10.0 11.5 97 0.3 SSE 13 17 7 9 1020.3 1019.6 0.0
26/07:30am 11.0 8.8 10.8 99 0.1 SSE 13 17 7 9 1020.3 1019.6 0.0
26/07:00am 10.6 7.9 10.4 99 0.1 SSE 15 19 8 10 1020.2 1019.5 0.0
26/06:30am 10.4 8.0 10.2 99 0.1 S 13 17 7 9 1020.1 1019.4 0.0
26/06:00am 10.0 7.6 9.9 99 0.1 SSE 13 17 7 9 1019.9 1019.2 0.0
26/05:30am 10.1 8.4 10.0 99 0.1 S 9 11 5 6 1019.8 1019.1 0.0
26/05:00am 10.2 8.6 10.1 99 0.1 S 9 11 5 6 1019.9 1019.2 0.0
26/04:30am 10.5 8.1 10.0 97 0.3 SSE 13 19 7 10 1020.1 1019.4 0.0
26/04:00am 10.9 8.3 10.7 99 0.1 S 15 20 8 11 1020.4 1019.7 0.0
26/03:30am 10.5 8.2 10.3 99 0.1 S 13 15 7 8 1020.6 1019.9 0.0
26/03:00am 10.4 8.4 10.1 98 0.2 S 11 15 6 8 1020.8 1020.1 0.0
26/02:30am 10.7 9.1 10.2 97 0.3 SSE 9 13 5 7 1021.1 1020.4 0.0
26/02:00am 11.7 9.6 11.1 96 0.3 SSE 13 20 7 11 1021.2 1020.6 0.0
26/01:30am 11.8 8.4 10.5 92 0.7 SSE 19 24 10 13 1021.7 1021.1 0.0
26/01:00am 12.4 8.4 10.6 89 0.9 SSE 22 33 12 18 1022.0 1021.4 0.0
26/12:30am 12.0 8.8 9.9 87 1.1 SSE 17 22 9 12 1022.4 1021.8 0.0
26/12:00am 12.1 8.5 9.7 85 1.2 SSE 19 26 10 14 1022.7 1022.1 0.0
 
Date/Time
EDT
Temp
°C
App
Temp
°C
Dew
Point
°C
Rel
Hum
%
Delta-T
°C
Wind Press
QNH
hPa
Press
MSL
hPa
Rain since
9am
mm
Dir  Spd
km/h
Gust
km/h
Spd
kts
Gust
kts
25/11:30pm 12.5 8.3 9.7 83 1.4 SSE 22 32 12 17 1022.9 1022.3 0.0
25/11:00pm 12.5 8.6 8.6 77 2.0 SSE 19 26 10 14 1023.1 1022.5 0.0
25/10:30pm 12.5 7.8 7.8 73 2.3 SSE 22 30 12 16 1023.0 1022.4 0.0
25/10:00pm 12.9 8.7 7.6 70 2.6 SSE 19 28 10 15 1023.1 1022.5 0.0
25/09:30pm 13.2 8.4 7.2 67 2.9 SSE 22 30 12 16 1023.2 1022.6 0.0
25/09:00pm 14.0 8.0 7.1 63 3.4 SSE 28 35 15 19 1022.9 1022.3 0.0
25/08:30pm 14.8 9.0 6.4 57 4.1 SSE 26 35 14 19 1022.6 1022.0 0.0
25/08:00pm 15.7 9.7 5.3 50 5.0 SSE 26 35 14 19 1022.5 1021.9 0.0
25/07:30pm 16.9 10.4 4.9 45 5.8 SSE 28 35 15 19 1022.2 1021.6 0.0
25/07:00pm 18.0 11.0 4.2 40 6.6 SSE 30 37 16 20 1021.9 1021.3 0.0
25/06:30pm 19.2 11.8 4.2 37 7.2 SSE 32 41 17 22 1021.9 1021.3 0.0
25/06:00pm 20.0 13.0 4.1 35 7.7 SSE 30 43 16 23 1022.0 1021.4 0.0
25/05:30pm 20.4 12.7 3.6 33 8.1 S 33 50 18 27 1022.0 1021.4 0.0
25/05:22pm 20.8 13.9 4.4 34 8.0 S 30 48 16 26 1021.9 1021.3 0.0
25/05:00pm 21.9 14.5 4.0 31 8.7 SSE 32 44 17 24 1022.1 1021.5 0.0
25/04:30pm 22.5 15.1 4.1 30 9.1 SSE 32 48 17 26 1022.1 1021.5 0.0
25/04:00pm 22.8 16.2 4.3 30 9.1 S 28 39 15 21 1022.3 1021.7 0.0
25/03:30pm 22.1 15.4 3.7 30 9.0 S 28 41 15 22 1022.6 1022.0 0.0
25/03:00pm 22.4 15.7 3.5 29 9.2 SSE 28 43 15 23 1022.9 1022.3 0.0
25/02:30pm 22.1 15.0 3.7 30 9.0 S 30 43 16 23 1023.3 1022.7 0.0
25/02:00pm 20.8 13.8 4.0 33 8.1 SSE 30 41 16 22 1023.4 1022.8 0.0
25/01:30pm 21.2 15.5 5.1 35 8.0 SSE 24 37 13 20 1023.6 1023.0 0.0
25/01:00pm 19.4 12.6 5.1 39 7.0 SSE 30 41 16 22 1024.3 1023.6 0.0
25/12:30pm 19.7 12.6 5.4 39 7.1 SSE 32 43 17 23 1024.7 1024.0 0.0
25/12:00pm 19.0 11.9 5.5 41 6.6 SSE 32 43 17 23 1024.9 1024.2 0.0
25/11:35am 18.8 12.6 6.0 43 6.4 SE 28 46 15 25 1025.1 1024.4 0.0
25/11:30am 17.9 11.7 6.1 46 5.9 SE 28 41 15 22 1025.1 1024.4 0.0
25/11:00am 17.0 10.0 6.8 51 5.1 SSE 33 46 18 25 1025.0 1024.3 0.0
25/10:30am 16.2 9.3 6.6 53 4.8 SE 32 46 17 25 1025.0 1024.3 0.0
25/10:24am 17.1 9.9 7.5 53 4.9 SSE 35 54 19 29 1025.2 1024.5 0.0
25/10:00am 15.0 7.4 7.5 61 3.7 SSE 37 48 20 26 1025.4 1024.7 0.0
25/09:30am 14.3 7.3 8.3 67 3.0 SSE 35 46 19 25 1025.4 1024.7 0.0
25/09:00am 13.9 8.1 7.9 67 3.0 SSE 28 39 15 21 1025.0 1024.3 0.0
25/08:30am 13.0 7.6 7.9 71 2.5 SSE 26 35 14 19 1024.9 1024.2 0.0
25/08:00am 11.7 7.2 8.6 81 1.5 SSE 22 30 12 16 1024.7 1024.0 0.0
25/07:30am 10.9 6.9 8.3 84 1.3 SSE 19 28 10 15 1024.7 1024.0 0.0
25/07:00am 10.9 6.8 8.5 85 1.2 SSE 20 30 11 16 1024.7 1024.0 0.0
25/06:30am 10.8 6.7 8.7 87 1.0 SSE 20 28 11 15 1024.4 1023.7 0.0
25/06:00am 10.9 7.1 9.2 89 0.9 S 19 28 10 15 1024.4 1023.7 0.0
25/05:30am 11.1 7.8 9.4 89 0.9 S 17 22 9 12 1024.3 1023.6 0.0
25/05:00am 11.3 7.5 9.2 87 1.1 S 19 26 10 14 1024.1 1023.5 0.0
25/04:30am 11.7 7.5 9.8 88 1.0 SSE 22 30 12 16 1023.9 1023.3 0.0
25/04:00am 11.7 8.1 9.9 89 0.9 SSE 19 28 10 15 1024.1 1023.5 0.0
25/03:30am 10.7 8.5 9.5 92 0.6 S 11 15 6 8 1024.4 1023.7 0.0
25/03:00am 10.3 8.4 9.1 92 0.6 S 9 13 5 7 1024.7 1024.0 0.0
25/02:30am 10.7 8.5 9.3 91 0.7 S 11 13 6 7 1025.1 1024.4 0.0
25/02:00am 11.2 8.3 9.5 89 0.9 S 15 20 8 11 1025.5 1024.8 0.0
25/01:30am 10.9 9.0 9.2 89 0.9 S 9 15 5 8 1025.6 1024.9 0.0
25/01:00am 11.0 8.7 8.9 87 1.0 S 11 15 6 8 1025.8 1025.2 0.0
25/12:30am 11.3 8.9 8.7 84 1.3 S 11 15 6 8 1025.9 1025.3 0.0
25/12:00am 11.7 9.3 8.6 81 1.5 S 11 17 6 9 1026.0 1025.4 0.0
 
Date/Time
EDT
Temp
°C
App
Temp
°C
Dew
Point
°C
Rel
Hum
%
Delta-T
°C
Wind Press
QNH
hPa
Press
MSL
hPa
Rain since
9am
mm
Dir  Spd
km/h
Gust
km/h
Spd
kts
Gust
kts
24/11:30pm 12.3 9.5 8.4 77 1.9 S 13 19 7 10 1026.0 1025.4 0.0
24/11:00pm 12.8 9.5 8.1 73 2.3 S 15 20 8 11 1026.0 1025.4 0.0
24/10:30pm 13.7 10.4 8.1 69 2.8 S 15 20 8 11 1026.1 1025.5 0.0
24/10:00pm 14.0 11.0 7.5 65 3.2 S 13 19 7 10 1026.2 1025.6 0.0
24/09:30pm 14.5 11.0 7.3 62 3.6 S 15 20 8 11 1026.0 1025.4 0.0
24/09:00pm 15.1 11.2 7.2 59 3.9 SSE 17 20 9 11 1025.7 1025.0 0.0
24/08:30pm 15.9 11.4 7.1 56 4.4 SSE 20 30 11 16 1025.4 1024.7 0.0
24/08:00pm 16.7 11.8 7.1 53 4.8 SSE 22 33 12 18 1025.1 1024.4 0.0
24/07:30pm 18.1 12.5 7.2 49 5.5 S 26 33 14 18 1024.8 1024.1 0.0
24/07:00pm 19.4 13.8 7.2 45 6.2 SSE 26 35 14 19 1024.7 1024.0 0.0
24/06:30pm 20.1 14.9 7.1 43 6.7 S 24 37 13 20 1024.4 1023.7 0.0
24/06:00pm 20.4 14.7 6.7 41 7.0 S 26 39 14 21 1024.4 1023.7 0.0
24/05:30pm 21.1 15.9 7.3 41 7.2 S 24 35 13 19 1024.4 1023.7 0.0
24/05:00pm 22.0 16.2 7.8 40 7.4 S 28 39 15 21 1024.4 1023.7 0.0
24/04:30pm 22.4 16.9 7.4 38 7.8 S 26 37 14 20 1024.1 1023.5 0.0
24/04:00pm 21.7 16.2 7.5 40 7.4 S 26 41 14 22 1024.4 1023.7 0.0
24/03:30pm 21.4 15.9 7.6 41 7.2 SSW 26 35 14 19 1024.6 1023.9 0.0
24/03:00pm 22.2 16.7 7.6 39 7.6 S 26 39 14 21 1024.6 1023.9 0.0
24/02:30pm 22.4 17.3 7.8 39 7.7 S 24 41 13 22 1024.8 1024.1 0.0
24/02:00pm 21.6 16.5 7.8 41 7.2 S 24 35 13 19 1025.2 1024.5 0.0
24/01:30pm 20.1 15.0 7.5 44 6.5 S 24 33 13 18 1025.4 1024.7 0.0
24/01:00pm 20.7 15.2 7.7 43 6.7 S 26 43 14 23 1025.5 1024.8 0.0
24/12:30pm 19.6 14.1 7.4 45 6.3 S 26 35 14 19 1025.9 1025.3 0.0
24/12:00pm 19.4 14.6 7.5 46 6.1 S 22 37 12 20 1026.1 1025.5 0.0
24/11:30am 19.4 14.3 7.8 47 6.0 S 24 39 13 21 1026.2 1025.6 0.0
24/11:00am 18.4 13.3 7.8 50 5.4 S 24 33 13 18 1026.1 1025.5 0.0

Other Formats:

Comma delimited format used in spreadsheet applications
http://www.bom.gov.au/fwo/IDV60801/IDV60801.95827.axf

JavaScript Object Notation format (JSON) in row-major order
http://www.bom.gov.au/fwo/IDV60801/IDV60801.95827.json